Pottsboro, TX

8:59 AM CST on December 09, 2016 (GMT -0600)
Sherman - Denison

Weather History for KGYI - October, 2013

Change the Weather History Date:

Wednesday, October 2, 2013

  Actual Average (KDFW) Record (KDFW)
Temperature  
Mean Temperature 80 °F -  
Max Temperature 89 °F 80 °F 99 °F (1951)
Min Temperature 73 °F 60 °F 47 °F (1985)
Cooling Degree Days 16    
Growing Degree Days 30 (Base 50)    
Moisture  
Dew Point 69 °F    
Average Humidity 71    
Maximum Humidity 90    
Minimum Humidity 47    
Precipitation  
Precipitation 0.00 in - - ()
Sea Level Pressure  
Sea Level Pressure 29.95 in    
Wind  
Wind Speed 11 mph (SSE)    
Max Wind Speed 17 mph    
Max Gust Speed 22 mph    
Visibility 10 miles    
Events      
Averages and records for this station are not official NWS values.
T = Trace of Precipitation, MM = Missing Value Source: NWS Daily Summary

Daily Weather History Graph

Daily Weather History Graph

Search for Another Location

Airport or City:

Trip Planner

Search our weather history database for the weather conditions in past years. The results will help you decide how hot, cold, wet, or windy it might be!

Date:

Astronomy

Oct. 02, 2013 Rise Set
Actual Time 7:22 AM CDT 7:09 PM CDT
Civil Twilight 6:57 AM CDT 7:34 PM CDT
Nautical Twilight 6:28 AM CDT 8:02 PM CDT
Astronomical Twilight 5:59 AM CDT 8:31 PM CDT
Moon 5:01 AM CDT (10/2) 5:42 PM CDT (10/2)
Length of Visible Light 12h 37m
Length of Day
11h 47m
Waning Crescent, 6% of the Moon is Illuminated
Oct 2
Waning Crescent
Oct 4
New
Oct 11
First Quarter
Oct 18
Full
Oct 26
Last Quarter

Hourly Weather History & Observations

Time (CDT) Temp. Heat Index Dew Point Humidity Pressure Visibility Wind Dir Wind Speed Gust Speed Precip Events Conditions
12:15 AM 76.5 °F - 70.5 °F 82% 29.95 in 10.0 mi ESE 8.1 mph - N/A   Clear
12:35 AM 76.3 °F - 70.3 °F 82% 29.95 in 10.0 mi SE 10.4 mph - N/A   Clear
12:55 AM 76.1 °F - 70.2 °F 82% 29.95 in 10.0 mi SE 11.5 mph - N/A   Clear
1:15 AM 76.1 °F - 70.2 °F 82% 29.95 in 10.0 mi SE 10.4 mph - N/A   Clear
1:35 AM 75.4 °F - 70.2 °F 84% 29.95 in 10.0 mi SE 9.2 mph - N/A   Clear
1:55 AM 75.2 °F - 70.2 °F 84% 29.95 in 10.0 mi SE 10.4 mph - N/A   Clear
2:15 AM 75.2 °F - 70.0 °F 84% 29.95 in 10.0 mi SE 11.5 mph - N/A   Scattered Clouds
2:35 AM 75.2 °F - 70.2 °F 84% 29.95 in 10.0 mi SSE 10.4 mph - N/A   Scattered Clouds
2:55 AM 74.8 °F - 70.0 °F 85% 29.95 in 10.0 mi SE 11.5 mph - N/A   Scattered Clouds
3:15 AM 74.5 °F - 70.0 °F 86% 29.95 in 10.0 mi SSE 11.5 mph - N/A   Scattered Clouds
3:35 AM 73.8 °F - 69.8 °F 87% 29.95 in 10.0 mi SSE 10.4 mph - N/A   Clear
3:55 AM 73.4 °F - 69.8 °F 88% 29.95 in 10.0 mi SSE 10.4 mph - N/A   Clear
4:15 AM 73.4 °F - 69.8 °F 88% 29.94 in 10.0 mi SSE 10.4 mph - N/A   Clear
4:35 AM 73.0 °F - 69.8 °F 90% 29.95 in 10.0 mi SSE 11.5 mph - N/A   Clear
4:55 AM 73.4 °F - 70.2 °F 90% 29.95 in 10.0 mi SSE 11.5 mph - N/A   Mostly Cloudy
5:15 AM 73.9 °F - 70.3 °F 88% 29.95 in 10.0 mi SSE 10.4 mph - N/A   Overcast
5:35 AM 74.3 °F - 70.7 °F 88% 29.95 in 10.0 mi SE 11.5 mph - N/A   Overcast
5:55 AM 74.3 °F - 70.7 °F 88% 29.96 in 7.0 mi SE 10.4 mph - N/A   Overcast
6:15 AM 73.9 °F - 70.7 °F 90% 29.97 in 7.0 mi SE 10.4 mph - N/A   Overcast
6:35 AM 74.1 °F - 70.7 °F 89% 29.97 in 10.0 mi SSE 10.4 mph - N/A   Overcast
6:55 AM 74.3 °F - 70.7 °F 88% 29.97 in 10.0 mi SE 11.5 mph - N/A   Overcast
7:15 AM 74.3 °F - 70.7 °F 88% 29.98 in 7.0 mi SSE 8.1 mph - N/A   Overcast
7:35 AM 74.3 °F - 70.7 °F 88% 29.98 in 10.0 mi SSE 8.1 mph - N/A   Overcast
7:55 AM 74.3 °F - 70.7 °F 88% 29.99 in 7.0 mi SE 9.2 mph - N/A   Overcast
8:15 AM 74.5 °F - 70.5 °F 87% 30.00 in 7.0 mi SSE 9.2 mph - N/A   Overcast
8:35 AM 74.8 °F - 70.2 °F 85% 30.00 in 10.0 mi SSE 11.5 mph - N/A   Overcast
8:55 AM 75.2 °F - 69.4 °F 82% 30.00 in 10.0 mi SSE 10.4 mph - N/A   Overcast
9:15 AM 76.1 °F - 68.9 °F 78% 30.01 in 10.0 mi SSE 12.7 mph - N/A   Overcast
9:35 AM 77.0 °F - 69.1 °F 76% 30.01 in 10.0 mi SSE 11.5 mph 17.3 mph N/A   Overcast
9:55 AM 76.6 °F - 69.3 °F 78% 30.02 in 10.0 mi South 11.5 mph - N/A   Overcast
10:15 AM 77.5 °F - 69.3 °F 76% 30.02 in 10.0 mi South 10.4 mph - N/A   Overcast
10:35 AM 79.3 °F - 69.8 °F 72% 30.02 in 10.0 mi South 6.9 mph - N/A   Overcast
10:55 AM 78.8 °F - 69.3 °F 72% 30.02 in 10.0 mi South 11.5 mph - N/A   Overcast
11:15 AM 81.9 °F 85.4 °F 69.4 °F 66% 30.01 in 10.0 mi SSE 11.5 mph - N/A   Mostly Cloudy
11:35 AM 80.8 °F 83.9 °F 69.3 °F 68% 30.01 in 10.0 mi SSE 11.5 mph - N/A   Mostly Cloudy
11:55 AM 80.8 °F 83.8 °F 69.1 °F 67% 30.01 in 10.0 mi South 11.5 mph - N/A   Overcast
12:15 PM 81.5 °F 84.8 °F 69.1 °F 66% 30.00 in 10.0 mi South 11.5 mph - N/A   Mostly Cloudy
12:35 PM 81.1 °F 84.4 °F 69.3 °F 67% 30.00 in 10.0 mi SSE 10.4 mph - N/A   Overcast
12:55 PM 83.1 °F 86.8 °F 69.4 °F 63% 29.98 in 10.0 mi SSE 8.1 mph - N/A   Mostly Cloudy
1:15 PM 85.3 °F 88.8 °F 68.7 °F 57% 29.97 in 10.0 mi SSE 13.8 mph 19.6 mph N/A   Scattered Clouds
1:35 PM 84.6 °F 87.6 °F 68.0 °F 57% 29.97 in 10.0 mi SSE 17.3 mph - N/A   Scattered Clouds
1:55 PM 86.4 °F 89.7 °F 68.0 °F 54% 29.95 in 10.0 mi SSE 15.0 mph 19.6 mph N/A   Mostly Cloudy
2:15 PM 85.5 °F 88.5 °F 67.6 °F 55% 29.94 in 10.0 mi South 11.5 mph - N/A   Mostly Cloudy
2:35 PM 87.8 °F 90.7 °F 67.3 °F 50% 29.93 in 10.0 mi SE 13.8 mph 20.7 mph N/A   Mostly Cloudy
2:55 PM 88.9 °F 92.2 °F 67.3 °F 49% 29.92 in 10.0 mi SE 12.7 mph 19.6 mph N/A   Mostly Cloudy
3:15 PM 86.9 °F 89.9 °F 67.3 °F 52% 29.91 in 10.0 mi SE 11.5 mph 17.3 mph N/A   Mostly Cloudy
3:35 PM 88.3 °F 90.9 °F 66.6 °F 48% 29.90 in 10.0 mi SSE 12.7 mph - N/A   Mostly Cloudy
3:55 PM 88.7 °F 91.5 °F 66.9 °F 48% 29.90 in 10.0 mi SE 15.0 mph 18.4 mph N/A   Scattered Clouds
4:15 PM 86.4 °F 89.0 °F 66.9 °F 52% 29.89 in 10.0 mi SSE 13.8 mph - N/A   Scattered Clouds
4:35 PM 86.5 °F 89.0 °F 66.6 °F 51% 29.89 in 10.0 mi SSE 15.0 mph 19.6 mph N/A   Scattered Clouds
4:55 PM 88.3 °F 90.5 °F 65.8 °F 47% 29.88 in 10.0 mi SSE 16.1 mph - N/A   Scattered Clouds
5:15 PM 87.8 °F 89.7 °F 65.3 °F 47% 29.88 in 10.0 mi SSE 17.3 mph 20.7 mph N/A   Clear
5:35 PM 87.1 °F 88.9 °F 65.5 °F 48% 29.88 in 10.0 mi SSE 16.1 mph 19.6 mph N/A   Clear
5:55 PM 86.7 °F 89.0 °F 66.2 °F 50% 29.88 in 10.0 mi SE 16.1 mph - N/A   Clear
6:15 PM 85.1 °F 87.4 °F 66.2 °F 53% 29.88 in 10.0 mi SSE 15.0 mph - N/A   Clear
6:35 PM 84.6 °F 86.8 °F 66.2 °F 54% 29.89 in 10.0 mi SSE 11.5 mph - N/A   Clear
6:55 PM 84.2 °F 86.8 °F 66.7 °F 56% 29.89 in 10.0 mi SSE 12.7 mph - N/A   Clear
7:15 PM 83.3 °F 85.9 °F 67.1 °F 58% 29.89 in 10.0 mi SSE 9.2 mph - N/A   Clear
7:35 PM 82.0 °F 84.5 °F 66.7 °F 60% 29.89 in 10.0 mi SSE 10.4 mph - N/A   Clear
7:55 PM 81.5 °F 83.9 °F 66.7 °F 61% 29.90 in 10.0 mi SSE 10.4 mph - N/A   Clear
8:15 PM 81.5 °F 83.7 °F 66.6 °F 60% 29.90 in 10.0 mi SSE 12.7 mph 17.3 mph N/A   Clear
8:35 PM 80.2 °F 82.5 °F 66.6 °F 63% 29.91 in 10.0 mi SE 10.4 mph - N/A   Clear
8:55 PM 80.1 °F 82.2 °F 66.4 °F 63% 29.91 in 10.0 mi SSE 8.1 mph - N/A   Clear
9:15 PM 79.3 °F - 66.6 °F 65% 29.92 in 10.0 mi SSE 6.9 mph - N/A   Clear
9:35 PM 78.8 °F - 68.0 °F 69% 29.93 in 10.0 mi SE 9.2 mph - N/A   Clear
9:55 PM 78.8 °F - 68.4 °F 70% 29.93 in 10.0 mi SE 11.5 mph - N/A   Clear
10:15 PM 78.3 °F - 68.2 °F 71% 29.93 in 10.0 mi SE 10.4 mph - N/A   Clear
10:35 PM 78.1 °F - 68.2 °F 71% 29.93 in 10.0 mi SE 12.7 mph - N/A   Clear
10:55 PM 78.1 °F - 68.2 °F 71% 29.93 in 10.0 mi SE 15.0 mph - N/A   Clear
11:15 PM 77.5 °F - 68.4 °F 73% 29.94 in 10.0 mi SSE 12.7 mph - N/A   Clear
11:35 PM 77.2 °F - 68.4 °F 74% 29.93 in 10.0 mi SSE 16.1 mph 21.9 mph N/A   Clear
11:55 PM 77.0 °F - 68.0 °F 74% 29.93 in 10.0 mi SSE 15.0 mph - N/A   Clear